createdAt,value
2019-02-20T00:00:16.332Z,94.40
2019-02-20T00:02:44.787Z,94.40
2019-02-20T00:05:11.377Z,93.60
2019-02-20T00:07:37.895Z,93.80
2019-02-20T00:10:05.974Z,94.20
2019-02-20T00:12:32.653Z,94.10
2019-02-20T00:14:59.226Z,94.30
2019-02-20T00:17:27.583Z,95.20
2019-02-20T00:19:54.199Z,95.20
2019-02-20T00:22:20.790Z,94.50
2019-02-20T00:24:48.174Z,93.30
2019-02-20T00:27:14.960Z,95.30
2019-02-20T00:29:41.508Z,95.20
2019-02-20T00:32:08.092Z,94.70
2019-02-20T00:34:34.821Z,94.30
2019-02-20T00:37:01.649Z,95.10
2019-02-20T00:39:28.240Z,95.50
2019-02-20T00:41:54.913Z,95.10
2019-02-20T00:44:23.371Z,94.60
2019-02-20T00:46:51.822Z,94.60
2019-02-20T00:49:20.299Z,94.50
2019-02-20T00:51:48.791Z,93.60
2019-02-20T00:54:15.373Z,94.70
2019-02-20T00:56:41.934Z,95.20
2019-02-20T00:59:08.499Z,94.40
2019-02-20T01:01:35.072Z,94.40
2019-02-20T01:04:01.675Z,94.70
2019-02-20T01:06:28.516Z,94.70
2019-02-20T01:08:55.062Z,94.40
2019-02-20T01:11:21.647Z,94.60
2019-02-20T01:13:48.193Z,95.20
2019-02-20T01:16:14.723Z,94.50
2019-02-20T01:18:41.306Z,94.90
2019-02-20T01:21:07.830Z,95.40
2019-02-20T01:23:34.363Z,94.10
2019-02-20T01:26:00.921Z,94.40
2019-02-20T01:28:27.438Z,94.50
2019-02-20T01:30:54.010Z,94.50
2019-02-20T01:33:20.580Z,94.60
2019-02-20T01:35:47.216Z,96.00
2019-02-20T01:38:13.826Z,95.70
2019-02-20T01:40:40.399Z,95.00
2019-02-20T01:43:06.948Z,95.80
2019-02-20T01:45:33.528Z,95.60
2019-02-20T01:48:00.101Z,95.30
2019-02-20T01:50:26.703Z,96.30
2019-02-20T01:52:53.273Z,95.10
2019-02-20T01:55:19.959Z,94.70
2019-02-20T01:57:46.507Z,95.10
2019-02-20T02:00:13.191Z,95.40
2019-02-20T02:02:40.186Z,95.10
2019-02-20T02:05:14.921Z,95.10
2019-02-20T02:07:36.220Z,95.20
2019-02-20T02:10:04.402Z,94.50
2019-02-20T02:12:32.450Z,94.10
2019-02-20T02:14:59.117Z,94.80
2019-02-20T02:17:25.793Z,95.00
2019-02-20T02:19:52.341Z,93.30
2019-02-20T02:22:18.917Z,94.70
2019-02-20T02:24:45.490Z,94.80
2019-02-20T02:27:12.044Z,94.50
2019-02-20T02:29:38.708Z,96.40
2019-02-20T02:32:05.327Z,96.10
2019-02-20T02:34:31.846Z,94.50
2019-02-20T02:36:58.447Z,95.30
2019-02-20T02:39:25.043Z,95.40
2019-02-20T02:41:51.692Z,96.20
2019-02-20T02:44:18.219Z,95.20
2019-02-20T02:46:44.783Z,94.80
2019-02-20T02:49:11.319Z,96.20
2019-02-20T02:51:37.902Z,95.80
2019-02-20T02:54:04.499Z,96.40
2019-02-20T02:56:31.100Z,96.30
2019-02-20T02:58:57.680Z,96.60
2019-02-20T03:01:24.278Z,96.30
2019-02-20T03:03:50.963Z,96.00
2019-02-20T03:06:17.674Z,95.70
2019-02-20T03:08:44.278Z,94.90
2019-02-20T03:11:11.023Z,95.20
2019-02-20T03:13:38.822Z,95.10
2019-02-20T03:16:05.424Z,95.90
2019-02-20T03:18:32.081Z,97.10
2019-02-20T03:20:58.799Z,96.80
2019-02-20T03:23:25.373Z,96.40
2019-02-20T03:26:08.020Z,96.40
2019-02-20T03:28:37.660Z,96.80
2019-02-20T03:31:04.468Z,96.00
2019-02-20T03:33:30.989Z,96.60
2019-02-20T03:35:57.558Z,95.60
2019-02-20T03:38:30.221Z,95.90
2019-02-20T03:40:53.777Z,95.30
2019-02-20T03:43:20.469Z,94.80
2019-02-20T03:45:47.120Z,94.10
2019-02-20T03:48:13.958Z,94.90
2019-02-20T03:50:40.615Z,96.00
2019-02-20T03:53:07.967Z,97.10
2019-02-20T03:55:34.618Z,96.90
2019-02-20T03:58:02.075Z,96.60
2019-02-20T04:00:28.764Z,96.30
2019-02-20T04:02:55.454Z,96.00
2019-02-20T04:05:35.022Z,94.90
2019-02-20T04:08:05.152Z,94.60
2019-02-20T04:10:33.598Z,94.30
2019-02-20T04:13:00.226Z,95.60
2019-02-20T04:15:28.324Z,95.30
2019-02-20T04:17:56.870Z,96.80
2019-02-20T04:20:25.323Z,96.40
2019-02-20T04:22:52.077Z,95.60
2019-02-20T04:25:19.159Z,94.00
2019-02-20T04:27:45.789Z,95.40
2019-02-20T04:30:12.437Z,96.50
2019-02-20T04:32:39.082Z,95.90
2019-02-20T04:35:05.656Z,95.50
2019-02-20T04:37:32.328Z,96.80
2019-02-20T04:39:58.985Z,96.70
2019-02-20T04:42:25.797Z,96.70
2019-02-20T04:44:52.432Z,96.70
2019-02-20T04:47:20.895Z,96.10
2019-02-20T04:49:48.624Z,95.50
2019-02-20T04:52:17.079Z,96.90
2019-02-20T04:54:43.728Z,96.20
2019-02-20T04:57:11.070Z,96.40
2019-02-20T04:59:37.716Z,96.30
2019-02-20T05:02:04.370Z,96.10
2019-02-20T05:04:31.016Z,94.80
2019-02-20T05:06:57.921Z,95.40
2019-02-20T05:09:26.445Z,94.00
2019-02-20T05:11:54.872Z,95.40
2019-02-20T05:14:23.337Z,95.50
2019-02-20T05:16:52.286Z,95.20
2019-02-20T05:19:19.047Z,96.70
2019-02-20T05:21:45.810Z,98.30
2019-02-20T05:24:12.448Z,98.80
2019-02-20T05:26:38.981Z,98.40
2019-02-20T05:29:07.427Z,98.50
2019-02-20T05:31:34.070Z,97.80
2019-02-20T05:34:02.233Z,96.80
2019-02-20T05:36:30.666Z,96.70
2019-02-20T05:38:59.143Z,96.80
2019-02-20T05:41:27.566Z,97.20
2019-02-20T05:43:56.039Z,97.20
2019-02-20T05:46:24.488Z,97.30
2019-02-20T05:48:52.925Z,96.50
2019-02-20T05:51:21.410Z,96.10
2019-02-20T05:53:49.878Z,96.30
2019-02-20T05:56:18.351Z,95.60
2019-02-20T05:58:45.997Z,95.50
2019-02-20T06:01:14.453Z,95.20
2019-02-20T06:03:44.019Z,95.20
2019-02-20T06:06:12.473Z,94.60
2019-02-20T06:08:40.924Z,95.30
2019-02-20T06:11:14.812Z,96.40
2019-02-20T06:13:40.768Z,97.00
2019-02-20T06:16:09.018Z,97.40
2019-02-20T06:18:37.467Z,97.50
2019-02-20T06:21:05.912Z,96.70
2019-02-20T06:23:34.291Z,96.70
2019-02-20T06:26:02.766Z,96.30
2019-02-20T06:28:31.746Z,96.80
2019-02-20T06:31:00.656Z,96.70
2019-02-20T06:33:29.305Z,96.90
2019-02-20T06:35:57.783Z,96.70
2019-02-20T06:38:26.306Z,96.60
2019-02-20T06:40:55.044Z,96.70
2019-02-20T06:43:23.781Z,96.40
2019-02-20T06:45:55.632Z,96.20
2019-02-20T06:51:45.252Z,95.70
2019-02-20T06:57:11.781Z,97.10
2019-02-20T06:59:41.096Z,96.70
2019-02-20T07:05:46.340Z,97.00
2019-02-20T07:17:18.424Z,97.30
2019-02-20T07:20:29.454Z,97.00
2019-02-20T07:23:27.960Z,96.50
2019-02-20T07:29:48.868Z,96.10
2019-02-20T07:32:26.263Z,95.60
2019-02-20T07:35:14.079Z,95.70
2019-02-20T07:37:46.999Z,96.00
2019-02-20T07:43:15.513Z,95.80
2019-02-20T07:45:44.737Z,95.70
2019-02-20T07:48:13.688Z,95.50
2019-02-20T07:53:48.245Z,94.60
2019-02-20T07:56:19.639Z,94.60
2019-02-20T07:58:51.771Z,95.10
2019-02-20T08:01:22.760Z,95.20
2019-02-20T08:03:52.943Z,94.70
2019-02-20T08:06:29.283Z,94.70
2019-02-20T08:08:58.051Z,94.40
2019-02-20T08:11:27.963Z,94.30
2019-02-20T08:13:58.442Z,95.20
2019-02-20T08:16:31.247Z,94.70
2019-02-20T08:19:03.634Z,94.70
2019-02-20T08:21:32.623Z,94.80
2019-02-20T08:24:02.526Z,94.10
2019-02-20T08:26:33.323Z,94.10
2019-02-20T08:29:03.008Z,93.70
2019-02-20T08:31:32.287Z,93.60
2019-02-20T08:34:04.158Z,94.00
2019-02-20T08:36:31.355Z,93.80
2019-02-20T08:39:00.936Z,93.30
2019-02-20T08:41:30.022Z,93.90
2019-02-20T08:44:00.711Z,93.80
2019-02-20T08:46:36.603Z,92.60
2019-02-20T08:49:05.047Z,93.30
2019-02-20T08:51:34.701Z,93.20
2019-02-20T08:54:04.523Z,92.70
2019-02-20T08:56:31.369Z,92.20
2019-02-20T08:58:58.034Z,92.60
2019-02-20T09:01:24.684Z,92.50
2019-02-20T09:03:52.856Z,91.70
2019-02-20T09:06:19.455Z,92.00
2019-02-20T09:08:48.739Z,91.10
2019-02-20T09:11:15.635Z,90.80
2019-02-20T09:13:44.113Z,90.70
2019-02-20T09:16:11.154Z,89.70
2019-02-20T09:18:37.844Z,88.10
2019-02-20T09:21:04.491Z,86.70
2019-02-20T09:23:34.869Z,86.30
2019-02-20T09:26:01.768Z,84.50
2019-02-20T09:28:28.616Z,85.70
2019-02-20T09:30:55.806Z,83.20
2019-02-20T09:33:22.601Z,82.50
2019-02-20T09:35:51.703Z,81.30
2019-02-20T09:38:19.409Z,82.10
2019-02-20T09:40:48.199Z,82.50
2019-02-20T09:43:16.726Z,80.70
2019-02-20T09:45:45.542Z,80.30
2019-02-20T09:48:15.491Z,77.10
2019-02-20T09:50:48.332Z,76.00
2019-02-20T10:08:20.328Z,70.10
2019-02-20T10:10:49.498Z,72.80
2019-02-20T10:13:18.593Z,71.50
2019-02-20T10:15:47.697Z,71.90
2019-02-20T10:18:16.502Z,71.00
2019-02-20T10:20:48.041Z,69.00
2019-02-20T10:23:18.680Z,66.50
2019-02-20T10:31:49.182Z,63.40
2019-02-20T10:40:36.805Z,59.60
2019-02-20T10:43:21.306Z,58.90
2019-02-20T10:46:07.396Z,58.30
2019-02-20T10:48:44.532Z,57.30
2019-02-20T10:51:25.155Z,56.20
2019-02-20T10:54:01.342Z,55.70
2019-02-20T10:56:30.951Z,53.20
2019-02-20T10:58:59.815Z,53.70
2019-02-20T11:01:28.575Z,51.10
2019-02-20T11:03:57.112Z,51.10
2019-02-20T11:06:25.584Z,52.80
2019-02-20T11:08:54.277Z,51.10
2019-02-20T11:11:22.765Z,49.10
2019-02-20T11:13:51.365Z,49.80
2019-02-20T11:16:19.941Z,49.90
2019-02-20T11:18:48.414Z,48.70
2019-02-20T11:21:17.165Z,48.50
2019-02-20T11:23:44.755Z,49.00
2019-02-20T11:26:18.194Z,46.10
2019-02-20T11:28:43.120Z,45.50
2019-02-20T11:31:11.629Z,41.30
2019-02-20T11:33:40.226Z,37.00
2019-02-20T11:36:08.680Z,33.70
2019-02-20T11:38:37.165Z,32.90
2019-02-20T11:41:05.605Z,34.80
2019-02-20T11:43:34.052Z,34.80
2019-02-20T11:46:02.574Z,35.80
2019-02-20T11:48:31.027Z,31.90
2019-02-20T11:50:59.486Z,28.80
2019-02-20T11:53:27.957Z,28.10
2019-02-20T11:55:56.427Z,27.00
2019-02-20T11:58:24.918Z,24.60
2019-02-20T12:00:53.386Z,24.40
2019-02-20T12:03:21.835Z,24.10
2019-02-20T12:05:50.294Z,24.50
2019-02-20T12:08:18.883Z,24.50
2019-02-20T12:10:47.356Z,26.10
2019-02-20T12:13:15.827Z,26.40
2019-02-20T12:15:44.285Z,26.40
2019-02-20T12:18:17.303Z,26.70
2019-02-20T12:20:42.997Z,26.60
2019-02-20T12:23:11.743Z,24.90
2019-02-20T12:25:40.194Z,25.70
2019-02-20T12:28:08.602Z,25.80
2019-02-20T12:30:38.082Z,25.00
2019-02-20T12:33:06.593Z,24.00
2019-02-20T12:35:35.035Z,22.00
2019-02-20T12:38:03.479Z,22.40
2019-02-20T12:40:31.929Z,20.70
2019-02-20T12:43:00.367Z,19.70
2019-02-20T12:45:28.829Z,19.80
2019-02-20T12:47:57.279Z,19.40
2019-02-20T12:50:25.760Z,20.30
2019-02-20T12:52:54.257Z,18.80
2019-02-20T12:55:22.749Z,16.80
2019-02-20T12:57:51.326Z,19.90
2019-02-20T13:00:21.533Z,19.70
2019-02-20T13:02:50.071Z,19.50
2019-02-20T13:05:18.543Z,19.40
2019-02-20T13:07:47.165Z,21.00
2019-02-20T13:10:15.593Z,22.60
2019-02-20T13:12:44.058Z,21.30
2019-02-20T13:15:12.634Z,20.50
2019-02-20T13:17:41.160Z,19.10
2019-02-20T13:20:10.225Z,20.20
2019-02-20T13:22:38.714Z,21.60
2019-02-20T13:25:08.125Z,21.90
2019-02-20T13:27:36.564Z,21.30
2019-02-20T13:30:08.438Z,21.10
2019-02-20T13:32:37.070Z,23.60
2019-02-20T13:35:05.521Z,27.40
2019-02-20T13:37:34.083Z,29.10
2019-02-20T13:40:02.839Z,28.20
2019-02-20T13:42:32.098Z,28.80
2019-02-20T13:45:00.618Z,28.10
2019-02-20T13:47:29.057Z,27.50
2019-02-20T13:49:58.531Z,26.80
2019-02-20T13:52:26.969Z,27.80
2019-02-20T13:54:55.457Z,27.80
2019-02-20T13:57:23.922Z,27.50
2019-02-20T13:59:52.384Z,28.40
2019-02-20T14:02:20.810Z,25.50
2019-02-20T14:04:49.263Z,24.50
2019-02-20T14:07:18.724Z,25.40
2019-02-20T14:09:47.186Z,24.00
2019-02-20T14:12:15.863Z,23.80
2019-02-20T14:14:44.326Z,23.30
2019-02-20T14:17:12.761Z,23.50
2019-02-20T14:19:41.236Z,24.70
2019-02-20T14:22:10.543Z,26.70
2019-02-20T14:24:39.014Z,24.60
2019-02-20T14:27:10.814Z,26.50
2019-02-20T14:29:37.783Z,27.40
2019-02-20T14:32:06.256Z,27.80
2019-02-20T14:34:34.796Z,27.00
2019-02-20T14:37:03.280Z,26.50
2019-02-20T14:39:32.815Z,25.20
2019-02-20T14:42:01.278Z,25.10
2019-02-20T14:44:30.015Z,25.20
2019-02-20T14:46:58.455Z,26.80
2019-02-20T14:49:26.894Z,29.30
2019-02-20T14:51:56.260Z,31.90
2019-02-20T14:54:24.856Z,32.10
2019-02-20T14:56:53.592Z,33.70
2019-02-20T14:59:22.208Z,35.20
2019-02-20T15:01:51.251Z,36.00
2019-02-20T15:04:19.703Z,38.50
2019-02-20T15:06:48.380Z,40.00
2019-02-20T15:09:19.370Z,41.60
2019-02-20T15:11:47.914Z,41.90
2019-02-20T15:14:16.388Z,41.90
2019-02-20T15:16:44.831Z,44.20
2019-02-20T15:19:13.273Z,44.70
2019-02-20T15:21:41.727Z,46.40
2019-02-20T15:24:10.178Z,47.40
2019-02-20T15:26:38.609Z,47.60
2019-02-20T15:29:07.074Z,48.30
2019-02-20T15:31:35.595Z,48.40
2019-02-20T15:34:04.951Z,49.00
2019-02-20T15:36:33.520Z,50.00
2019-02-20T15:39:02.191Z,49.90
2019-02-20T15:41:32.558Z,49.70
2019-02-20T15:44:01.146Z,49.70
2019-02-20T15:46:29.598Z,51.00
2019-02-20T15:48:58.503Z,51.80
2019-02-20T15:51:28.640Z,52.30
2019-02-20T15:53:57.151Z,52.30
2019-02-20T15:56:25.648Z,53.40
2019-02-20T15:58:54.118Z,54.40
2019-02-20T16:01:22.566Z,55.30
2019-02-20T16:03:51.133Z,56.30
2019-02-20T16:06:21.258Z,56.20
2019-02-20T16:08:49.739Z,56.70
2019-02-20T16:11:24.655Z,57.40
2019-02-20T16:16:50.210Z,59.00
2019-02-20T16:19:18.950Z,61.10
2019-02-20T16:21:48.513Z,61.60
2019-02-20T16:24:19.385Z,61.40
2019-02-20T16:26:47.837Z,61.20
2019-02-20T16:29:16.318Z,62.10
2019-02-20T16:31:45.077Z,62.60
2019-02-20T16:34:14.594Z,63.30
2019-02-20T16:36:43.083Z,63.50
2019-02-20T16:39:11.538Z,65.00
2019-02-20T16:41:40.176Z,65.30
2019-02-20T16:44:10.115Z,66.70
2019-02-20T16:46:38.629Z,67.30
2019-02-20T16:49:07.075Z,67.70
2019-02-20T16:51:35.511Z,67.70
2019-02-20T16:54:04.979Z,69.50
2019-02-20T16:56:33.695Z,70.20
2019-02-20T16:59:02.191Z,70.20
2019-02-20T17:01:30.651Z,71.60
2019-02-20T17:03:59.397Z,72.50
2019-02-20T17:06:27.887Z,73.40
2019-02-20T17:08:56.388Z,73.20
2019-02-20T17:11:24.863Z,74.20
2019-02-20T17:13:53.345Z,73.80
2019-02-20T17:16:21.841Z,74.20
2019-02-20T17:18:50.341Z,74.20
2019-02-20T17:21:19.013Z,75.30
2019-02-20T17:23:47.487Z,75.80
2019-02-20T17:26:15.915Z,76.00
2019-02-20T17:28:44.404Z,76.30
2019-02-20T17:31:12.907Z,76.40
2019-02-20T17:33:41.380Z,78.10
2019-02-20T17:36:09.871Z,78.30
2019-02-20T17:38:38.407Z,78.30
2019-02-20T17:41:06.880Z,78.00
2019-02-20T17:43:35.347Z,78.10
2019-02-20T17:46:03.808Z,78.80
2019-02-20T17:48:32.267Z,79.10
2019-02-20T17:51:00.725Z,78.90
2019-02-20T17:53:29.502Z,78.50
2019-02-20T17:55:57.944Z,79.00
2019-02-20T17:58:26.424Z,79.40
2019-02-20T18:00:54.885Z,79.70
2019-02-20T18:03:23.439Z,80.40
2019-02-20T18:05:51.923Z,79.70
2019-02-20T18:08:20.539Z,79.90
2019-02-20T18:10:49.037Z,80.30
2019-02-20T18:13:17.540Z,80.80
2019-02-20T18:15:45.997Z,80.90
2019-02-20T18:18:14.565Z,81.20
2019-02-20T18:20:43.475Z,80.70
2019-02-20T18:23:11.987Z,81.60
2019-02-20T18:25:40.605Z,80.50
2019-02-20T18:28:09.210Z,81.00
2019-02-20T18:30:37.804Z,80.70
2019-02-20T18:33:06.350Z,80.40
2019-02-20T18:35:34.839Z,81.70
2019-02-20T18:38:03.409Z,82.70
2019-02-20T18:40:31.968Z,83.20
2019-02-20T18:43:00.599Z,82.70
2019-02-20T18:45:29.168Z,83.40
2019-02-20T18:47:57.619Z,83.30
2019-02-20T18:50:27.823Z,83.50
2019-02-20T18:52:56.330Z,83.10
2019-02-20T18:55:24.900Z,83.70
2019-02-20T18:57:53.351Z,84.70
2019-02-20T19:00:21.838Z,83.90
2019-02-20T19:02:50.500Z,83.20
2019-02-20T19:05:19.314Z,83.00
2019-02-20T19:07:48.027Z,82.70
2019-02-20T19:10:26.370Z,82.90
2019-02-20T19:13:24.480Z,84.10
2019-02-20T19:16:03.000Z,84.00
2019-02-20T19:19:05.376Z,83.80
2019-02-20T19:21:46.326Z,84.30
2019-02-20T19:24:44.330Z,83.00
2019-02-20T19:27:22.539Z,82.40
2019-02-20T19:30:17.210Z,84.20
2019-02-20T19:32:55.623Z,84.60
2019-02-20T19:35:49.085Z,84.50
2019-02-20T19:38:33.301Z,83.70
2019-02-20T19:41:22.128Z,84.50
2019-02-20T19:44:00.422Z,84.10
2019-02-20T19:46:45.188Z,84.20
2019-02-20T19:49:35.373Z,83.90
2019-02-20T19:52:32.388Z,83.70
2019-02-20T19:55:13.648Z,84.30
2019-02-20T19:57:51.988Z,83.90
2019-02-20T20:00:24.425Z,84.50
2019-02-20T20:03:20.990Z,84.70
2019-02-20T20:05:53.343Z,84.80
2019-02-20T20:08:45.357Z,85.50
2019-02-20T20:11:44.258Z,85.40
2019-02-20T20:14:37.286Z,85.20
2019-02-20T20:17:32.417Z,84.70
2019-02-20T20:20:22.807Z,85.50
2019-02-20T20:23:10.061Z,85.70
2019-02-20T20:25:54.454Z,85.70
2019-02-20T20:28:24.730Z,85.70
2019-02-20T20:31:06.101Z,86.10
2019-02-20T20:33:56.722Z,85.80
2019-02-20T20:36:47.214Z,87.40
2019-02-20T20:39:40.714Z,86.80
2019-02-20T20:42:18.944Z,86.80
2019-02-20T20:44:57.208Z,87.90
2019-02-20T20:47:35.589Z,86.60
2019-02-20T20:50:17.145Z,87.90
2019-02-20T20:52:52.020Z,87.60
2019-02-20T20:55:45.478Z,87.00
2019-02-20T20:58:41.999Z,87.20
2019-02-20T21:01:32.383Z,86.60
2019-02-20T21:04:10.678Z,87.60
2019-02-20T21:06:57.504Z,87.90
2019-02-20T21:09:35.639Z,88.20
2019-02-20T21:12:10.605Z,88.90
2019-02-20T21:14:45.962Z,87.90
2019-02-20T21:17:21.251Z,88.60
2019-02-20T21:19:59.790Z,89.10
2019-02-20T21:22:35.083Z,89.40
2019-02-20T21:25:17.059Z,90.00
2019-02-20T21:28:06.007Z,89.00
2019-02-20T21:30:52.955Z,89.40
2019-02-20T21:33:39.479Z,89.20
2019-02-20T21:36:17.731Z,88.70
2019-02-20T21:39:08.089Z,88.00
2019-02-20T21:41:49.925Z,88.60
2019-02-20T21:44:22.165Z,89.10
2019-02-20T21:47:11.911Z,89.20
2019-02-20T21:49:56.270Z,88.60
2019-02-20T21:52:38.429Z,88.40
2019-02-20T21:55:43.938Z,89.50
2019-02-20T21:58:25.284Z,89.90
2019-02-20T22:01:12.273Z,90.30
2019-02-20T22:03:56.663Z,90.30
2019-02-20T22:06:41.003Z,90.30
2019-02-20T22:09:22.227Z,90.70
2019-02-20T22:12:03.681Z,90.80
2019-02-20T22:14:52.193Z,90.80
2019-02-20T22:17:36.052Z,90.50
2019-02-20T22:20:30.985Z,90.80
2019-02-20T22:23:21.496Z,91.00
2019-02-20T22:26:14.884Z,90.60
2019-02-20T22:28:59.071Z,90.50
2019-02-20T22:31:43.485Z,90.80
2019-02-20T22:34:13.692Z,91.40
2019-02-20T22:36:54.702Z,91.70
2019-02-20T22:39:35.806Z,91.60
2019-02-20T22:42:29.311Z,91.60
2019-02-20T22:45:07.126Z,91.20
2019-02-20T22:47:54.549Z,91.50
2019-02-20T22:50:49.013Z,91.50
2019-02-20T22:53:21.297Z,91.70
2019-02-20T22:56:28.394Z,91.60
2019-02-20T22:59:01.490Z,91.40
2019-02-20T23:01:36.429Z,91.20
2019-02-20T23:04:11.788Z,91.70
2019-02-20T23:07:03.728Z,91.20
2019-02-20T23:09:38.749Z,91.40
2019-02-20T23:12:29.116Z,90.20
2019-02-20T23:14:58.632Z,91.60
2019-02-20T23:17:27.405Z,91.70
2019-02-20T23:19:55.864Z,92.10
2019-02-20T23:22:24.303Z,93.10
2019-02-20T23:24:52.790Z,92.90
2019-02-20T23:27:21.351Z,92.90
2019-02-20T23:29:50.794Z,92.80
2019-02-20T23:32:19.323Z,92.40
2019-02-20T23:34:47.761Z,93.10
2019-02-20T23:37:16.200Z,93.10
2019-02-20T23:39:44.655Z,92.50
2019-02-20T23:42:13.112Z,92.60
2019-02-20T23:44:41.564Z,93.00
2019-02-20T23:47:09.986Z,92.90
2019-02-20T23:49:38.425Z,92.40
2019-02-20T23:52:06.872Z,92.00
2019-02-20T23:54:35.296Z,92.60
2019-02-20T23:57:03.778Z,93.40
2019-02-20T23:59:32.272Z,93.50
